sensor_id;sensor_type;location;lat;lon;timestamp;temperature;humidity
39677;DHT22;27789;50.840;4.386;2024-01-27T00:01:05;6.30;99.90
39677;DHT22;27789;50.840;4.386;2024-01-27T00:03:30;6.30;99.90
39677;DHT22;27789;50.840;4.386;2024-01-27T00:05:55;6.30;99.90
39677;DHT22;27789;50.840;4.386;2024-01-27T00:08:21;6.20;99.90
39677;DHT22;27789;50.840;4.386;2024-01-27T00:10:47;6.30;99.90
39677;DHT22;27789;50.840;4.386;2024-01-27T00:13:12;6.30;99.90
39677;DHT22;27789;50.840;4.386;2024-01-27T00:15:38;6.30;99.90
39677;DHT22;27789;50.840;4.386;2024-01-27T00:18:04;6.30;99.90
39677;DHT22;27789;50.840;4.386;2024-01-27T00:20:29;6.20;99.90
39677;DHT22;27789;50.840;4.386;2024-01-27T00:22:55;6.20;99.90
39677;DHT22;27789;50.840;4.386;2024-01-27T00:25:20;6.20;99.90
39677;DHT22;27789;50.840;4.386;2024-01-27T00:27:46;6.20;99.90
39677;DHT22;27789;50.840;4.386;2024-01-27T00:30:11;6.20;99.90
39677;DHT22;27789;50.840;4.386;2024-01-27T00:32:37;6.20;99.90
39677;DHT22;27789;50.840;4.386;2024-01-27T00:35:03;6.20;99.90
39677;DHT22;27789;50.840;4.386;2024-01-27T00:37:28;6.20;99.90
39677;DHT22;27789;50.840;4.386;2024-01-27T00:39:54;6.20;99.90
39677;DHT22;27789;50.840;4.386;2024-01-27T00:42:20;6.20;99.90
39677;DHT22;27789;50.840;4.386;2024-01-27T00:44:49;6.10;99.90
39677;DHT22;27789;50.840;4.386;2024-01-27T00:47:15;6.10;99.90
39677;DHT22;27789;50.840;4.386;2024-01-27T00:49:40;6.10;99.90
39677;DHT22;27789;50.840;4.386;2024-01-27T00:52:06;6.10;99.90
39677;DHT22;27789;50.840;4.386;2024-01-27T00:54:31;6.10;99.90
39677;DHT22;27789;50.840;4.386;2024-01-27T00:56:57;6.10;99.90
39677;DHT22;27789;50.840;4.386;2024-01-27T00:59:22;6.10;99.90
39677;DHT22;27789;50.840;4.386;2024-01-27T01:01:47;6.10;99.90
39677;DHT22;27789;50.840;4.386;2024-01-27T01:04:13;6.10;99.90
39677;DHT22;27789;50.840;4.386;2024-01-27T01:06:39;6.10;99.90
39677;DHT22;27789;50.840;4.386;2024-01-27T01:09:05;6.00;99.90
39677;DHT22;27789;50.840;4.386;2024-01-27T01:11:30;6.10;99.90
39677;DHT22;27789;50.840;4.386;2024-01-27T01:13:56;6.00;99.90
39677;DHT22;27789;50.840;4.386;2024-01-27T01:16:21;6.00;99.90
39677;DHT22;27789;50.840;4.386;2024-01-27T01:18:47;6.00;99.90
39677;DHT22;27789;50.840;4.386;2024-01-27T01:21:12;6.00;99.90
39677;DHT22;27789;50.840;4.386;2024-01-27T01:23:38;6.00;99.90
39677;DHT22;27789;50.840;4.386;2024-01-27T01:26:03;5.90;99.90
39677;DHT22;27789;50.840;4.386;2024-01-27T01:28:29;5.90;99.90
39677;DHT22;27789;50.840;4.386;2024-01-27T01:30:55;5.90;99.90
39677;DHT22;27789;50.840;4.386;2024-01-27T01:33:21;5.90;99.90
39677;DHT22;27789;50.840;4.386;2024-01-27T01:35:46;6.00;99.90
39677;DHT22;27789;50.840;4.386;2024-01-27T01:38:12;5.90;99.90
39677;DHT22;27789;50.840;4.386;2024-01-27T01:40:37;5.80;99.90
39677;DHT22;27789;50.840;4.386;2024-01-27T01:43:03;5.80;99.90
39677;DHT22;27789;50.840;4.386;2024-01-27T01:45:29;5.80;99.90
39677;DHT22;27789;50.840;4.386;2024-01-27T01:47:55;5.80;99.90
39677;DHT22;27789;50.840;4.386;2024-01-27T01:50:20;5.70;99.90
39677;DHT22;27789;50.840;4.386;2024-01-27T01:52:47;5.70;99.90
39677;DHT22;27789;50.840;4.386;2024-01-27T01:55:13;5.70;99.90
39677;DHT22;27789;50.840;4.386;2024-01-27T01:57:39;5.70;99.90
39677;DHT22;27789;50.840;4.386;2024-01-27T02:00:05;5.70;99.90
39677;DHT22;27789;50.840;4.386;2024-01-27T02:02:31;5.70;99.90
39677;DHT22;27789;50.840;4.386;2024-01-27T02:04:56;5.60;99.90
39677;DHT22;27789;50.840;4.386;2024-01-27T02:07:22;5.60;99.90
39677;DHT22;27789;50.840;4.386;2024-01-27T02:09:47;5.60;99.90
39677;DHT22;27789;50.840;4.386;2024-01-27T02:12:13;5.60;99.90
39677;DHT22;27789;50.840;4.386;2024-01-27T02:14:38;5.60;99.90
39677;DHT22;27789;50.840;4.386;2024-01-27T02:17:04;5.60;99.90
39677;DHT22;27789;50.840;4.386;2024-01-27T02:19:29;5.50;99.90
39677;DHT22;27789;50.840;4.386;2024-01-27T02:21:55;5.50;99.90
39677;DHT22;27789;50.840;4.386;2024-01-27T02:24:20;5.50;99.90
39677;DHT22;27789;50.840;4.386;2024-01-27T02:26:46;5.50;99.90
39677;DHT22;27789;50.840;4.386;2024-01-27T02:29:11;5.40;99.90
39677;DHT22;27789;50.840;4.386;2024-01-27T02:31:37;5.40;99.90
39677;DHT22;27789;50.840;4.386;2024-01-27T02:34:02;5.40;99.90
39677;DHT22;27789;50.840;4.386;2024-01-27T02:36:28;5.40;99.90
39677;DHT22;27789;50.840;4.386;2024-01-27T02:38:53;5.40;99.90
39677;DHT22;27789;50.840;4.386;2024-01-27T02:41:19;5.40;99.90
39677;DHT22;27789;50.840;4.386;2024-01-27T02:43:44;5.40;99.90
39677;DHT22;27789;50.840;4.386;2024-01-27T02:46:11;5.30;99.90
39677;DHT22;27789;50.840;4.386;2024-01-27T02:48:39;5.30;99.90
39677;DHT22;27789;50.840;4.386;2024-01-27T02:51:04;5.40;99.90
39677;DHT22;27789;50.840;4.386;2024-01-27T02:53:30;5.30;99.90
39677;DHT22;27789;50.840;4.386;2024-01-27T02:55:55;5.40;99.90
39677;DHT22;27789;50.840;4.386;2024-01-27T02:58:21;5.40;99.90
39677;DHT22;27789;50.840;4.386;2024-01-27T03:00:46;5.40;99.90
39677;DHT22;27789;50.840;4.386;2024-01-27T03:03:12;5.30;99.90
39677;DHT22;27789;50.840;4.386;2024-01-27T03:05:38;5.30;99.90
39677;DHT22;27789;50.840;4.386;2024-01-27T03:08:03;5.40;99.90
39677;DHT22;27789;50.840;4.386;2024-01-27T03:10:29;5.40;99.90
39677;DHT22;27789;50.840;4.386;2024-01-27T03:12:54;5.40;99.90
39677;DHT22;27789;50.840;4.386;2024-01-27T03:15:20;5.30;99.90
39677;DHT22;27789;50.840;4.386;2024-01-27T03:17:45;5.40;99.90
39677;DHT22;27789;50.840;4.386;2024-01-27T03:20:10;5.30;99.90
39677;DHT22;27789;50.840;4.386;2024-01-27T03:22:36;5.30;99.90
39677;DHT22;27789;50.840;4.386;2024-01-27T03:25:01;5.40;99.90
39677;DHT22;27789;50.840;4.386;2024-01-27T03:27:27;5.30;99.90
39677;DHT22;27789;50.840;4.386;2024-01-27T03:29:52;5.40;99.90
39677;DHT22;27789;50.840;4.386;2024-01-27T03:32:18;5.30;99.90
39677;DHT22;27789;50.840;4.386;2024-01-27T03:34:43;5.30;99.90
39677;DHT22;27789;50.840;4.386;2024-01-27T03:37:10;5.30;99.90
39677;DHT22;27789;50.840;4.386;2024-01-27T03:39:35;5.30;99.90
39677;DHT22;27789;50.840;4.386;2024-01-27T03:42:01;5.30;99.90
39677;DHT22;27789;50.840;4.386;2024-01-27T03:44:26;5.30;99.90
39677;DHT22;27789;50.840;4.386;2024-01-27T03:46:52;5.30;99.90
39677;DHT22;27789;50.840;4.386;2024-01-27T03:49:17;5.30;99.90
39677;DHT22;27789;50.840;4.386;2024-01-27T03:51:43;5.20;99.90
39677;DHT22;27789;50.840;4.386;2024-01-27T03:54:08;5.20;99.90
39677;DHT22;27789;50.840;4.386;2024-01-27T03:56:34;5.20;99.90
39677;DHT22;27789;50.840;4.386;2024-01-27T03:58:59;5.20;99.90
39677;DHT22;27789;50.840;4.386;2024-01-27T04:01:25;5.20;99.90
39677;DHT22;27789;50.840;4.386;2024-01-27T04:03:50;5.20;99.90
39677;DHT22;27789;50.840;4.386;2024-01-27T04:06:15;5.20;99.90
39677;DHT22;27789;50.840;4.386;2024-01-27T04:08:41;5.20;99.90
39677;DHT22;27789;50.840;4.386;2024-01-27T04:11:09;5.20;99.90
39677;DHT22;27789;50.840;4.386;2024-01-27T04:13:35;5.10;99.90
39677;DHT22;27789;50.840;4.386;2024-01-27T04:16:01;5.20;99.90
39677;DHT22;27789;50.840;4.386;2024-01-27T04:18:26;5.20;99.90
39677;DHT22;27789;50.840;4.386;2024-01-27T04:20:52;5.20;99.90
39677;DHT22;27789;50.840;4.386;2024-01-27T04:23:17;5.20;99.90
39677;DHT22;27789;50.840;4.386;2024-01-27T04:25:43;5.10;99.90
39677;DHT22;27789;50.840;4.386;2024-01-27T04:28:08;5.20;99.90
39677;DHT22;27789;50.840;4.386;2024-01-27T04:30:36;5.20;99.90
39677;DHT22;27789;50.840;4.386;2024-01-27T04:33:01;5.10;99.90
39677;DHT22;27789;50.840;4.386;2024-01-27T04:35:28;5.10;99.90
39677;DHT22;27789;50.840;4.386;2024-01-27T04:37:53;5.10;99.90
39677;DHT22;27789;50.840;4.386;2024-01-27T04:40:18;5.10;99.90
39677;DHT22;27789;50.840;4.386;2024-01-27T04:42:44;5.10;99.90
39677;DHT22;27789;50.840;4.386;2024-01-27T04:45:09;5.00;99.90
39677;DHT22;27789;50.840;4.386;2024-01-27T04:47:35;5.00;99.90
39677;DHT22;27789;50.840;4.386;2024-01-27T04:50:01;5.00;99.90
39677;DHT22;27789;50.840;4.386;2024-01-27T04:52:26;5.00;99.90
39677;DHT22;27789;50.840;4.386;2024-01-27T04:54:51;5.00;99.90
39677;DHT22;27789;50.840;4.386;2024-01-27T04:57:17;5.00;99.90
39677;DHT22;27789;50.840;4.386;2024-01-27T04:59:42;5.00;99.90
39677;DHT22;27789;50.840;4.386;2024-01-27T05:02:08;5.00;99.90
39677;DHT22;27789;50.840;4.386;2024-01-27T05:04:33;5.00;99.90
39677;DHT22;27789;50.840;4.386;2024-01-27T05:06:59;5.00;99.90
39677;DHT22;27789;50.840;4.386;2024-01-27T05:09:24;5.00;99.90
39677;DHT22;27789;50.840;4.386;2024-01-27T05:11:50;5.00;99.90
39677;DHT22;27789;50.840;4.386;2024-01-27T05:14:19;5.00;99.90
39677;DHT22;27789;50.840;4.386;2024-01-27T05:16:44;5.00;99.90
39677;DHT22;27789;50.840;4.386;2024-01-27T05:19:10;5.00;99.90
39677;DHT22;27789;50.840;4.386;2024-01-27T05:21:35;5.00;99.90
39677;DHT22;27789;50.840;4.386;2024-01-27T05:24:01;5.00;99.90
39677;DHT22;27789;50.840;4.386;2024-01-27T05:26:27;5.00;99.90
39677;DHT22;27789;50.840;4.386;2024-01-27T05:28:52;5.00;99.90
39677;DHT22;27789;50.840;4.386;2024-01-27T05:31:18;5.00;99.90
39677;DHT22;27789;50.840;4.386;2024-01-27T05:33:43;5.00;99.90
39677;DHT22;27789;50.840;4.386;2024-01-27T05:36:09;5.00;99.90
39677;DHT22;27789;50.840;4.386;2024-01-27T05:38:34;5.00;99.90
39677;DHT22;27789;50.840;4.386;2024-01-27T05:41:03;5.00;99.90
39677;DHT22;27789;50.840;4.386;2024-01-27T05:43:29;5.00;99.90
39677;DHT22;27789;50.840;4.386;2024-01-27T05:45:54;5.00;99.90
39677;DHT22;27789;50.840;4.386;2024-01-27T05:48:20;5.00;99.90
39677;DHT22;27789;50.840;4.386;2024-01-27T05:50:54;5.00;99.90
39677;DHT22;27789;50.840;4.386;2024-01-27T05:53:21;5.00;99.90
39677;DHT22;27789;50.840;4.386;2024-01-27T05:55:46;5.00;99.90
39677;DHT22;27789;50.840;4.386;2024-01-27T05:58:12;4.90;99.90
39677;DHT22;27789;50.840;4.386;2024-01-27T06:00:37;4.90;99.90
39677;DHT22;27789;50.840;4.386;2024-01-27T06:03:03;4.90;99.90
39677;DHT22;27789;50.840;4.386;2024-01-27T06:05:28;4.80;99.90
39677;DHT22;27789;50.840;4.386;2024-01-27T06:07:54;4.80;99.90
39677;DHT22;27789;50.840;4.386;2024-01-27T06:10:19;4.80;99.90
39677;DHT22;27789;50.840;4.386;2024-01-27T06:12:44;4.80;99.90
39677;DHT22;27789;50.840;4.386;2024-01-27T06:15:10;4.80;99.90
39677;DHT22;27789;50.840;4.386;2024-01-27T06:17:36;4.80;99.90
39677;DHT22;27789;50.840;4.386;2024-01-27T06:20:01;4.80;99.90
39677;DHT22;27789;50.840;4.386;2024-01-27T06:22:27;4.80;99.90
39677;DHT22;27789;50.840;4.386;2024-01-27T06:24:52;4.70;99.90
39677;DHT22;27789;50.840;4.386;2024-01-27T06:27:18;4.70;99.90
39677;DHT22;27789;50.840;4.386;2024-01-27T06:29:43;4.70;99.90
39677;DHT22;27789;50.840;4.386;2024-01-27T06:32:09;4.70;99.90
39677;DHT22;27789;50.840;4.386;2024-01-27T06:34:34;4.80;99.90
39677;DHT22;27789;50.840;4.386;2024-01-27T06:37:00;4.80;99.90
39677;DHT22;27789;50.840;4.386;2024-01-27T06:39:25;4.80;99.90
39677;DHT22;27789;50.840;4.386;2024-01-27T06:41:51;4.80;99.90
39677;DHT22;27789;50.840;4.386;2024-01-27T06:44:16;4.80;99.90
39677;DHT22;27789;50.840;4.386;2024-01-27T06:46:42;4.70;99.90
39677;DHT22;27789;50.840;4.386;2024-01-27T06:49:10;4.70;99.90
39677;DHT22;27789;50.840;4.386;2024-01-27T06:51:35;4.70;99.90
39677;DHT22;27789;50.840;4.386;2024-01-27T06:54:01;4.70;99.90
39677;DHT22;27789;50.840;4.386;2024-01-27T06:56:26;4.70;99.90
39677;DHT22;27789;50.840;4.386;2024-01-27T06:58:52;4.70;99.90
39677;DHT22;27789;50.840;4.386;2024-01-27T07:01:17;4.70;99.90
39677;DHT22;27789;50.840;4.386;2024-01-27T07:03:43;4.70;99.90
39677;DHT22;27789;50.840;4.386;2024-01-27T07:06:09;4.70;99.90
39677;DHT22;27789;50.840;4.386;2024-01-27T07:08:35;4.70;99.90
39677;DHT22;27789;50.840;4.386;2024-01-27T07:11:01;4.70;99.90
39677;DHT22;27789;50.840;4.386;2024-01-27T07:13:27;4.70;99.90
39677;DHT22;27789;50.840;4.386;2024-01-27T07:15:54;4.70;99.90
39677;DHT22;27789;50.840;4.386;2024-01-27T07:18:20;4.70;99.90
39677;DHT22;27789;50.840;4.386;2024-01-27T07:20:47;4.70;99.90
39677;DHT22;27789;50.840;4.386;2024-01-27T07:23:13;4.70;99.90
39677;DHT22;27789;50.840;4.386;2024-01-27T07:25:38;4.70;99.90
39677;DHT22;27789;50.840;4.386;2024-01-27T07:28:03;4.70;99.90
39677;DHT22;27789;50.840;4.386;2024-01-27T07:30:30;4.70;99.90
39677;DHT22;27789;50.840;4.386;2024-01-27T07:32:56;4.70;99.90
39677;DHT22;27789;50.840;4.386;2024-01-27T07:35:22;4.70;99.90
39677;DHT22;27789;50.840;4.386;2024-01-27T07:37:47;4.70;99.90
39677;DHT22;27789;50.840;4.386;2024-01-27T07:40:13;4.60;99.90
39677;DHT22;27789;50.840;4.386;2024-01-27T07:42:38;4.60;99.90
39677;DHT22;27789;50.840;4.386;2024-01-27T07:45:04;4.70;99.90
39677;DHT22;27789;50.840;4.386;2024-01-27T07:47:29;4.70;99.90
39677;DHT22;27789;50.840;4.386;2024-01-27T07:49:55;4.70;99.90
39677;DHT22;27789;50.840;4.386;2024-01-27T07:52:20;4.70;99.90
39677;DHT22;27789;50.840;4.386;2024-01-27T07:54:46;4.80;99.90
39677;DHT22;27789;50.840;4.386;2024-01-27T07:57:11;4.80;99.90
39677;DHT22;27789;50.840;4.386;2024-01-27T07:59:37;4.80;99.90
39677;DHT22;27789;50.840;4.386;2024-01-27T08:02:03;4.80;99.90
39677;DHT22;27789;50.840;4.386;2024-01-27T08:04:28;4.80;99.90
39677;DHT22;27789;50.840;4.386;2024-01-27T08:06:54;4.80;99.90
39677;DHT22;27789;50.840;4.386;2024-01-27T08:09:19;4.80;99.90
39677;DHT22;27789;50.840;4.386;2024-01-27T08:11:45;4.90;99.90
39677;DHT22;27789;50.840;4.386;2024-01-27T08:14:11;4.90;99.90
39677;DHT22;27789;50.840;4.386;2024-01-27T08:16:36;5.00;99.90
39677;DHT22;27789;50.840;4.386;2024-01-27T08:19:02;5.00;99.90
39677;DHT22;27789;50.840;4.386;2024-01-27T08:21:27;5.00;99.90
39677;DHT22;27789;50.840;4.386;2024-01-27T08:23:53;5.10;99.90
39677;DHT22;27789;50.840;4.386;2024-01-27T08:26:18;5.10;99.90
39677;DHT22;27789;50.840;4.386;2024-01-27T08:28:49;5.20;99.90
39677;DHT22;27789;50.840;4.386;2024-01-27T08:31:14;5.10;99.90
39677;DHT22;27789;50.840;4.386;2024-01-27T08:33:40;5.20;99.90
39677;DHT22;27789;50.840;4.386;2024-01-27T08:36:05;5.20;99.90
39677;DHT22;27789;50.840;4.386;2024-01-27T08:38:32;5.20;99.90
39677;DHT22;27789;50.840;4.386;2024-01-27T08:40:57;5.20;99.90
39677;DHT22;27789;50.840;4.386;2024-01-27T08:43:23;5.30;99.90
39677;DHT22;27789;50.840;4.386;2024-01-27T08:45:48;5.30;99.90
39677;DHT22;27789;50.840;4.386;2024-01-27T08:48:14;5.30;99.90
39677;DHT22;27789;50.840;4.386;2024-01-27T08:50:40;5.30;99.90
39677;DHT22;27789;50.840;4.386;2024-01-27T08:53:06;5.40;99.90
39677;DHT22;27789;50.840;4.386;2024-01-27T08:55:31;5.40;99.90
39677;DHT22;27789;50.840;4.386;2024-01-27T08:57:57;5.50;99.90
39677;DHT22;27789;50.840;4.386;2024-01-27T09:00:22;5.50;99.90
39677;DHT22;27789;50.840;4.386;2024-01-27T09:02:47;5.60;99.90
39677;DHT22;27789;50.840;4.386;2024-01-27T09:05:13;5.60;99.90
39677;DHT22;27789;50.840;4.386;2024-01-27T09:07:39;5.60;99.90
39677;DHT22;27789;50.840;4.386;2024-01-27T09:10:04;5.60;99.90
39677;DHT22;27789;50.840;4.386;2024-01-27T09:12:30;5.70;99.90
39677;DHT22;27789;50.840;4.386;2024-01-27T09:14:55;5.70;99.90
39677;DHT22;27789;50.840;4.386;2024-01-27T09:17:21;5.80;99.90
39677;DHT22;27789;50.840;4.386;2024-01-27T09:19:46;5.90;99.90
39677;DHT22;27789;50.840;4.386;2024-01-27T09:22:12;5.90;99.90
39677;DHT22;27789;50.840;4.386;2024-01-27T09:24:37;6.00;99.90
39677;DHT22;27789;50.840;4.386;2024-01-27T09:27:03;6.00;99.90
39677;DHT22;27789;50.840;4.386;2024-01-27T09:29:29;6.10;99.90
39677;DHT22;27789;50.840;4.386;2024-01-27T09:31:54;6.10;99.90
39677;DHT22;27789;50.840;4.386;2024-01-27T09:34:20;6.20;99.90
39677;DHT22;27789;50.840;4.386;2024-01-27T09:36:45;6.30;99.90
39677;DHT22;27789;50.840;4.386;2024-01-27T09:39:11;6.40;99.90
39677;DHT22;27789;50.840;4.386;2024-01-27T09:41:36;6.40;99.90
39677;DHT22;27789;50.840;4.386;2024-01-27T09:44:03;6.50;99.90
39677;DHT22;27789;50.840;4.386;2024-01-27T09:46:29;6.60;99.90
39677;DHT22;27789;50.840;4.386;2024-01-27T09:48:55;6.60;99.90
39677;DHT22;27789;50.840;4.386;2024-01-27T09:51:20;6.70;99.90
39677;DHT22;27789;50.840;4.386;2024-01-27T09:53:46;7.30;99.90
39677;DHT22;27789;50.840;4.386;2024-01-27T09:56:12;8.40;99.90
39677;DHT22;27789;50.840;4.386;2024-01-27T09:58:43;9.10;99.90
39677;DHT22;27789;50.840;4.386;2024-01-27T10:01:09;9.90;99.90
39677;DHT22;27789;50.840;4.386;2024-01-27T10:03:35;10.70;99.90
39677;DHT22;27789;50.840;4.386;2024-01-27T10:06:01;11.00;99.90
39677;DHT22;27789;50.840;4.386;2024-01-27T10:08:27;10.70;99.90
39677;DHT22;27789;50.840;4.386;2024-01-27T10:10:56;11.10;99.90
39677;DHT22;27789;50.840;4.386;2024-01-27T10:13:22;11.50;99.90
39677;DHT22;27789;50.840;4.386;2024-01-27T10:16:00;12.00;99.90
39677;DHT22;27789;50.840;4.386;2024-01-27T10:18:26;12.40;99.90
39677;DHT22;27789;50.840;4.386;2024-01-27T10:20:51;12.70;99.90
39677;DHT22;27789;50.840;4.386;2024-01-27T10:23:17;12.30;99.90
39677;DHT22;27789;50.840;4.386;2024-01-27T10:25:43;11.70;99.90
39677;DHT22;27789;50.840;4.386;2024-01-27T10:28:08;11.50;99.90
39677;DHT22;27789;50.840;4.386;2024-01-27T10:30:34;11.60;99.90
39677;DHT22;27789;50.840;4.386;2024-01-27T10:32:59;11.40;99.90
39677;DHT22;27789;50.840;4.386;2024-01-27T10:35:25;11.10;99.90
39677;DHT22;27789;50.840;4.386;2024-01-27T10:37:52;10.90;99.90
39677;DHT22;27789;50.840;4.386;2024-01-27T10:40:18;10.80;99.90
39677;DHT22;27789;50.840;4.386;2024-01-27T10:42:43;10.40;99.90
39677;DHT22;27789;50.840;4.386;2024-01-27T10:45:09;9.90;99.90
39677;DHT22;27789;50.840;4.386;2024-01-27T10:47:36;9.60;99.90
39677;DHT22;27789;50.840;4.386;2024-01-27T10:50:02;9.50;99.90
39677;DHT22;27789;50.840;4.386;2024-01-27T10:52:28;9.80;99.90
39677;DHT22;27789;50.840;4.386;2024-01-27T10:54:58;11.10;99.90
39677;DHT22;27789;50.840;4.386;2024-01-27T10:57:25;12.50;99.90
39677;DHT22;27789;50.840;4.386;2024-01-27T10:59:51;13.10;99.30
39677;DHT22;27789;50.840;4.386;2024-01-27T11:02:17;13.30;98.80
39677;DHT22;27789;50.840;4.386;2024-01-27T11:04:44;13.70;98.40
39677;DHT22;27789;50.840;4.386;2024-01-27T11:07:10;14.30;98.10
39677;DHT22;27789;50.840;4.386;2024-01-27T11:09:36;14.90;97.40
39677;DHT22;27789;50.840;4.386;2024-01-27T11:12:02;15.10;97.00
39677;DHT22;27789;50.840;4.386;2024-01-27T11:14:28;15.20;97.10
39677;DHT22;27789;50.840;4.386;2024-01-27T11:16:55;15.00;96.70
39677;DHT22;27789;50.840;4.386;2024-01-27T11:19:21;15.30;96.60
39677;DHT22;27789;50.840;4.386;2024-01-27T11:21:47;15.60;96.80
39677;DHT22;27789;50.840;4.386;2024-01-27T11:24:16;16.20;96.30
39677;DHT22;27789;50.840;4.386;2024-01-27T11:26:42;16.70;95.40
39677;DHT22;27789;50.840;4.386;2024-01-27T11:29:09;16.80;95.20
39677;DHT22;27789;50.840;4.386;2024-01-27T11:31:44;16.70;95.00
39677;DHT22;27789;50.840;4.386;2024-01-27T11:34:10;16.50;95.20
39677;DHT22;27789;50.840;4.386;2024-01-27T11:36:37;16.10;94.90
39677;DHT22;27789;50.840;4.386;2024-01-27T11:39:03;15.90;95.20
39677;DHT22;27789;50.840;4.386;2024-01-27T11:41:29;15.40;95.60
39677;DHT22;27789;50.840;4.386;2024-01-27T11:43:55;15.60;95.40
39677;DHT22;27789;50.840;4.386;2024-01-27T11:46:21;15.20;95.70
39677;DHT22;27789;50.840;4.386;2024-01-27T11:48:47;14.60;95.80
39677;DHT22;27789;50.840;4.386;2024-01-27T11:51:14;14.20;96.00
39677;DHT22;27789;50.840;4.386;2024-01-27T11:53:39;13.90;96.60
39677;DHT22;27789;50.840;4.386;2024-01-27T11:56:05;14.00;96.50
39677;DHT22;27789;50.840;4.386;2024-01-27T11:58:30;14.10;96.20
39677;DHT22;27789;50.840;4.386;2024-01-27T12:00:56;13.80;96.10
39677;DHT22;27789;50.840;4.386;2024-01-27T12:03:22;14.20;96.00
39677;DHT22;27789;50.840;4.386;2024-01-27T12:05:47;14.60;95.80
39677;DHT22;27789;50.840;4.386;2024-01-27T12:08:13;15.30;95.40
39677;DHT22;27789;50.840;4.386;2024-01-27T12:10:38;15.90;94.90
39677;DHT22;27789;50.840;4.386;2024-01-27T12:13:04;16.60;94.50
39677;DHT22;27789;50.840;4.386;2024-01-27T12:15:29;17.00;93.80
39677;DHT22;27789;50.840;4.386;2024-01-27T12:17:55;17.10;93.10
39677;DHT22;27789;50.840;4.386;2024-01-27T12:20:22;17.00;93.00
39677;DHT22;27789;50.840;4.386;2024-01-27T12:22:48;17.30;92.80
39677;DHT22;27789;50.840;4.386;2024-01-27T12:25:16;17.90;92.90
39677;DHT22;27789;50.840;4.386;2024-01-27T12:27:41;18.40;92.10
39677;DHT22;27789;50.840;4.386;2024-01-27T12:30:07;18.50;91.70
39677;DHT22;27789;50.840;4.386;2024-01-27T12:32:33;17.90;91.70
39677;DHT22;27789;50.840;4.386;2024-01-27T12:35:05;17.60;92.00
39677;DHT22;27789;50.840;4.386;2024-01-27T12:37:30;18.10;92.00
39677;DHT22;27789;50.840;4.386;2024-01-27T12:39:56;18.70;91.60
39677;DHT22;27789;50.840;4.386;2024-01-27T12:42:22;18.90;91.30
39677;DHT22;27789;50.840;4.386;2024-01-27T12:44:47;18.60;90.70
39677;DHT22;27789;50.840;4.386;2024-01-27T12:47:13;17.60;91.40
39677;DHT22;27789;50.840;4.386;2024-01-27T12:49:39;18.30;91.30
39677;DHT22;27789;50.840;4.386;2024-01-27T12:52:05;18.90;90.40
39677;DHT22;27789;50.840;4.386;2024-01-27T12:54:31;19.40;90.40
39677;DHT22;27789;50.840;4.386;2024-01-27T12:56:56;19.50;90.40
39677;DHT22;27789;50.840;4.386;2024-01-27T12:59:22;20.10;90.10
39677;DHT22;27789;50.840;4.386;2024-01-27T13:01:48;19.90;88.60
39677;DHT22;27789;50.840;4.386;2024-01-27T13:04:14;19.70;89.40
39677;DHT22;27789;50.840;4.386;2024-01-27T13:06:40;19.80;89.20
39677;DHT22;27789;50.840;4.386;2024-01-27T13:09:05;20.20;89.50
39677;DHT22;27789;50.840;4.386;2024-01-27T13:11:31;20.40;88.70
39677;DHT22;27789;50.840;4.386;2024-01-27T13:13:57;20.40;88.30
39677;DHT22;27789;50.840;4.386;2024-01-27T13:16:23;20.40;88.30
39677;DHT22;27789;50.840;4.386;2024-01-27T13:18:48;20.20;89.00
39677;DHT22;27789;50.840;4.386;2024-01-27T13:21:14;20.20;88.90
39677;DHT22;27789;50.840;4.386;2024-01-27T13:23:39;20.20;88.80
39677;DHT22;27789;50.840;4.386;2024-01-27T13:26:05;19.90;89.10
39677;DHT22;27789;50.840;4.386;2024-01-27T13:28:30;19.80;89.30
39677;DHT22;27789;50.840;4.386;2024-01-27T13:30:56;19.70;89.50
39677;DHT22;27789;50.840;4.386;2024-01-27T13:33:22;19.50;89.40
39677;DHT22;27789;50.840;4.386;2024-01-27T13:35:47;18.80;90.30
39677;DHT22;27789;50.840;4.386;2024-01-27T13:38:13;18.20;90.30
39677;DHT22;27789;50.840;4.386;2024-01-27T13:40:39;17.90;90.80
39677;DHT22;27789;50.840;4.386;2024-01-27T13:43:04;17.60;90.90
39677;DHT22;27789;50.840;4.386;2024-01-27T13:45:30;17.60;91.00
39677;DHT22;27789;50.840;4.386;2024-01-27T13:47:56;17.90;91.10
39677;DHT22;27789;50.840;4.386;2024-01-27T13:50:22;17.80;91.00
39677;DHT22;27789;50.840;4.386;2024-01-27T13:52:48;17.40;90.90
39677;DHT22;27789;50.840;4.386;2024-01-27T13:55:13;17.20;91.10
39677;DHT22;27789;50.840;4.386;2024-01-27T13:57:39;16.70;91.40
39677;DHT22;27789;50.840;4.386;2024-01-27T14:00:05;16.20;91.50
39677;DHT22;27789;50.840;4.386;2024-01-27T14:02:31;15.80;91.90
39677;DHT22;27789;50.840;4.386;2024-01-27T14:04:57;15.60;92.20
39677;DHT22;27789;50.840;4.386;2024-01-27T14:07:22;15.20;92.60
39677;DHT22;27789;50.840;4.386;2024-01-27T14:09:48;15.20;92.60
39677;DHT22;27789;50.840;4.386;2024-01-27T14:12:13;15.50;92.50
39677;DHT22;27789;50.840;4.386;2024-01-27T14:14:40;15.60;92.40
39677;DHT22;27789;50.840;4.386;2024-01-27T14:17:07;15.40;92.30
39677;DHT22;27789;50.840;4.386;2024-01-27T14:19:33;15.50;92.30
39677;DHT22;27789;50.840;4.386;2024-01-27T14:21:58;15.40;92.50
39677;DHT22;27789;50.840;4.386;2024-01-27T14:24:23;15.00;92.30
39677;DHT22;27789;50.840;4.386;2024-01-27T14:26:51;14.70;92.70
39677;DHT22;27789;50.840;4.386;2024-01-27T14:29:16;14.30;92.90
39677;DHT22;27789;50.840;4.386;2024-01-27T14:31:42;14.00;93.20
39677;DHT22;27789;50.840;4.386;2024-01-27T14:34:08;13.70;93.00
39677;DHT22;27789;50.840;4.386;2024-01-27T14:36:35;13.40;93.40
39677;DHT22;27789;50.840;4.386;2024-01-27T14:39:00;13.10;93.80
39677;DHT22;27789;50.840;4.386;2024-01-27T14:41:27;12.70;94.20
39677;DHT22;27789;50.840;4.386;2024-01-27T14:43:52;12.50;94.50
39677;DHT22;27789;50.840;4.386;2024-01-27T14:46:18;12.20;94.90
39677;DHT22;27789;50.840;4.386;2024-01-27T14:48:44;12.00;95.20
39677;DHT22;27789;50.840;4.386;2024-01-27T14:51:10;11.80;95.30
39677;DHT22;27789;50.840;4.386;2024-01-27T14:53:36;11.60;95.70
39677;DHT22;27789;50.840;4.386;2024-01-27T14:56:01;11.50;96.00
39677;DHT22;27789;50.840;4.386;2024-01-27T14:58:27;11.50;96.20
39677;DHT22;27789;50.840;4.386;2024-01-27T15:00:52;11.30;96.30
39677;DHT22;27789;50.840;4.386;2024-01-27T15:03:19;11.20;96.40
39677;DHT22;27789;50.840;4.386;2024-01-27T15:05:45;11.20;96.60
39677;DHT22;27789;50.840;4.386;2024-01-27T15:08:11;11.10;96.60
39677;DHT22;27789;50.840;4.386;2024-01-27T15:10:36;11.00;96.80
39677;DHT22;27789;50.840;4.386;2024-01-27T15:13:02;11.00;96.90
39677;DHT22;27789;50.840;4.386;2024-01-27T15:15:28;10.90;97.10
39677;DHT22;27789;50.840;4.386;2024-01-27T15:17:53;10.80;97.20
39677;DHT22;27789;50.840;4.386;2024-01-27T15:20:25;10.80;97.40
39677;DHT22;27789;50.840;4.386;2024-01-27T15:22:54;10.80;97.50
39677;DHT22;27789;50.840;4.386;2024-01-27T15:25:20;10.70;97.60
39677;DHT22;27789;50.840;4.386;2024-01-27T15:27:46;10.70;97.80
39677;DHT22;27789;50.840;4.386;2024-01-27T15:30:13;10.70;97.90